createdAt,value
2017-03-20T00:00:27.678Z,92.80
2017-03-20T00:01:27.729Z,92.50
2017-03-20T00:02:28.673Z,92.60
2017-03-20T00:03:28.688Z,92.40
2017-03-20T00:04:28.702Z,92.90
2017-03-20T00:05:28.732Z,92.50
2017-03-20T00:06:28.780Z,92.60
2017-03-20T00:07:28.789Z,92.90
2017-03-20T00:08:28.793Z,93.00
2017-03-20T00:09:29.311Z,93.00
2017-03-20T00:10:29.342Z,93.10
2017-03-20T00:11:30.100Z,93.00
2017-03-20T00:12:30.124Z,93.30
2017-03-20T00:13:30.234Z,93.40
2017-03-20T00:14:30.192Z,93.50
2017-03-20T00:15:30.193Z,93.60
2017-03-20T00:16:30.228Z,93.60
2017-03-20T00:17:30.232Z,93.60
2017-03-20T00:18:30.273Z,93.70
2017-03-20T00:19:30.329Z,93.60
2017-03-20T00:20:30.365Z,93.80
2017-03-20T00:21:30.929Z,93.60
2017-03-20T00:22:31.309Z,93.50
2017-03-20T00:23:31.315Z,93.50
2017-03-20T00:24:31.495Z,93.50
2017-03-20T00:25:31.485Z,93.50
2017-03-20T00:26:31.529Z,93.70
2017-03-20T00:27:31.578Z,93.60
2017-03-20T00:28:31.689Z,93.70
2017-03-20T00:29:31.748Z,93.20
2017-03-20T00:30:31.764Z,93.20
2017-03-20T00:31:31.753Z,93.70
2017-03-20T00:32:31.851Z,93.70
2017-03-20T00:33:31.890Z,93.60
2017-03-20T00:34:31.980Z,93.60
2017-03-20T00:35:31.998Z,93.90
2017-03-20T00:36:32.069Z,93.50
2017-03-20T00:37:32.121Z,93.60
2017-03-20T00:38:32.732Z,93.60
2017-03-20T00:39:32.698Z,93.50
2017-03-20T00:40:32.691Z,93.50
2017-03-20T00:41:32.689Z,93.60
2017-03-20T00:42:32.693Z,93.40
2017-03-20T00:43:32.727Z,93.50
2017-03-20T00:44:32.716Z,93.40
2017-03-20T00:45:32.704Z,93.40
2017-03-20T00:46:33.307Z,93.40
2017-03-20T00:47:33.391Z,93.50
2017-03-20T00:48:34.136Z,93.50
2017-03-20T00:49:34.137Z,93.50
2017-03-20T00:50:34.149Z,93.40
2017-03-20T00:51:34.139Z,93.40
2017-03-20T00:52:34.128Z,93.40
2017-03-20T00:53:34.886Z,93.60
2017-03-20T00:54:34.869Z,93.50
2017-03-20T00:55:34.861Z,93.60
2017-03-20T00:56:35.565Z,93.70
2017-03-20T00:57:35.574Z,93.90
2017-03-20T00:58:35.598Z,93.60
2017-03-20T00:59:35.534Z,93.70
2017-03-20T01:00:35.597Z,93.70
2017-03-20T01:01:35.675Z,93.80
2017-03-20T01:02:35.658Z,93.30
2017-03-20T01:03:35.670Z,93.70
2017-03-20T01:04:35.629Z,93.80
2017-03-20T01:05:35.618Z,93.70
2017-03-20T01:06:35.589Z,93.80
2017-03-20T01:07:35.643Z,93.70
2017-03-20T01:08:35.722Z,93.80
2017-03-20T01:09:35.689Z,93.90
2017-03-20T01:10:35.655Z,94.10
2017-03-20T01:11:36.206Z,93.70
2017-03-20T01:12:36.237Z,93.80
2017-03-20T01:13:36.210Z,93.80
2017-03-20T01:14:36.929Z,93.80
2017-03-20T01:15:36.933Z,93.80
2017-03-20T01:16:36.893Z,93.30
2017-03-20T01:17:36.878Z,93.70
2017-03-20T01:18:36.856Z,93.60
2017-03-20T01:19:36.836Z,93.60
2017-03-20T01:20:37.580Z,93.70
2017-03-20T01:21:37.584Z,93.80
2017-03-20T01:22:37.631Z,93.60
2017-03-20T01:23:37.634Z,93.50
2017-03-20T01:24:46.882Z,93.20
2017-03-20T01:25:57.252Z,93.40
2017-03-20T01:26:57.218Z,93.40
2017-03-20T01:27:57.177Z,93.40
2017-03-20T01:28:57.144Z,93.40
2017-03-20T01:29:57.157Z,93.20
2017-03-20T01:30:57.169Z,93.40
2017-03-20T01:31:57.153Z,93.40
2017-03-20T01:32:57.186Z,93.30
2017-03-20T01:33:57.173Z,93.20
2017-03-20T01:34:57.194Z,93.20
2017-03-20T01:35:57.124Z,93.20
2017-03-20T01:36:57.129Z,93.10
2017-03-20T01:37:57.106Z,93.00
2017-03-20T01:38:57.077Z,93.00
2017-03-20T01:39:57.054Z,92.90
2017-03-20T01:40:57.057Z,93.20
2017-03-20T01:41:57.016Z,93.20
2017-03-20T01:42:56.988Z,93.20
2017-03-20T01:43:56.956Z,93.00
2017-03-20T01:44:56.969Z,93.10
2017-03-20T01:45:57.038Z,93.00
2017-03-20T01:46:56.981Z,93.00
2017-03-20T01:47:56.970Z,93.00
2017-03-20T01:48:56.942Z,93.00
2017-03-20T01:49:56.908Z,93.20
2017-03-20T01:50:58.394Z,92.90
2017-03-20T01:51:58.334Z,92.90
2017-03-20T01:52:58.399Z,92.90
2017-03-20T01:53:58.345Z,92.80
2017-03-20T01:54:58.389Z,92.90
2017-03-20T01:55:58.430Z,93.00
2017-03-20T01:56:58.406Z,92.90
2017-03-20T01:57:59.046Z,92.90
2017-03-20T01:58:58.986Z,92.90
2017-03-20T01:59:58.989Z,92.90
2017-03-20T02:00:59.613Z,93.00
2017-03-20T02:01:59.600Z,92.80
2017-03-20T02:02:59.610Z,92.90
2017-03-20T02:03:59.567Z,92.90
2017-03-20T02:05:59.751Z,92.90
2017-03-20T02:06:59.762Z,92.90
2017-03-20T02:07:59.875Z,92.80
2017-03-20T02:08:59.817Z,92.60
2017-03-20T02:09:59.837Z,92.70
2017-03-20T02:11:00.520Z,92.70
2017-03-20T02:12:00.487Z,92.60
2017-03-20T02:13:00.501Z,92.20
2017-03-20T02:14:00.462Z,92.50
2017-03-20T02:15:01.189Z,92.00
2017-03-20T02:16:01.158Z,92.30
2017-03-20T02:17:01.157Z,92.20
2017-03-20T02:18:01.129Z,92.20
2017-03-20T02:19:01.820Z,92.10
2017-03-20T02:20:01.762Z,92.00
2017-03-20T02:21:01.733Z,92.00
2017-03-20T02:22:02.459Z,92.00
2017-03-20T02:23:02.458Z,91.50
2017-03-20T02:24:02.419Z,92.10
2017-03-20T02:25:02.401Z,92.00
2017-03-20T02:26:02.377Z,91.90
2017-03-20T02:27:03.078Z,91.90
2017-03-20T02:28:03.085Z,91.90
2017-03-20T02:29:03.689Z,91.80
2017-03-20T02:30:03.674Z,92.10
2017-03-20T02:31:03.736Z,92.00
2017-03-20T02:32:03.781Z,92.10
2017-03-20T02:33:03.810Z,92.10
2017-03-20T02:34:03.899Z,92.10
2017-03-20T02:35:04.668Z,92.20
2017-03-20T02:36:04.676Z,92.00
2017-03-20T02:37:04.669Z,92.10
2017-03-20T02:38:04.673Z,92.00
2017-03-20T02:39:04.758Z,92.00
2017-03-20T02:40:04.742Z,91.90
2017-03-20T02:41:05.455Z,92.00
2017-03-20T02:42:05.454Z,92.00
2017-03-20T02:43:05.421Z,91.70
2017-03-20T02:44:05.437Z,92.00
2017-03-20T02:45:05.405Z,92.00
2017-03-20T02:46:05.473Z,92.00
2017-03-20T02:47:05.434Z,92.00
2017-03-20T02:48:05.454Z,92.30
2017-03-20T02:49:05.466Z,92.30
2017-03-20T02:50:05.452Z,92.20
2017-03-20T02:51:05.554Z,92.20
2017-03-20T02:52:05.537Z,91.70
2017-03-20T02:53:05.503Z,92.20
2017-03-20T02:54:05.538Z,92.30
2017-03-20T02:55:05.522Z,92.20
2017-03-20T02:56:05.679Z,91.80
2017-03-20T02:57:05.679Z,92.20
2017-03-20T02:58:05.640Z,92.30
2017-03-20T02:59:05.605Z,91.80
2017-03-20T03:00:05.659Z,91.70
2017-03-20T03:01:05.669Z,91.70
2017-03-20T03:02:05.720Z,91.60
2017-03-20T03:03:05.718Z,92.40
2017-03-20T03:04:05.749Z,92.10
2017-03-20T03:05:05.765Z,91.90
2017-03-20T03:06:05.809Z,92.20
2017-03-20T03:07:05.820Z,92.30
2017-03-20T03:08:05.831Z,91.80
2017-03-20T03:09:06.593Z,92.30
2017-03-20T03:10:06.614Z,92.40
2017-03-20T03:11:07.308Z,92.40
2017-03-20T03:12:08.021Z,92.40
2017-03-20T03:13:08.747Z,92.40
2017-03-20T03:14:08.739Z,92.40
2017-03-20T03:15:08.765Z,92.00
2017-03-20T03:16:09.577Z,92.60
2017-03-20T03:17:09.524Z,92.80
2017-03-20T03:18:09.511Z,92.70
2017-03-20T03:19:09.480Z,92.80
2017-03-20T03:20:09.501Z,92.80
2017-03-20T03:21:09.501Z,92.70
2017-03-20T03:22:09.504Z,92.20
2017-03-20T03:23:09.494Z,92.80
2017-03-20T03:24:09.513Z,92.80
2017-03-20T03:25:09.528Z,92.80
2017-03-20T03:26:09.617Z,92.80
2017-03-20T03:27:09.601Z,92.80
2017-03-20T03:28:09.588Z,92.80
2017-03-20T03:29:09.579Z,92.80
2017-03-20T03:30:09.568Z,92.80
2017-03-20T03:31:09.580Z,92.70
2017-03-20T03:32:09.549Z,92.70
2017-03-20T03:33:09.513Z,92.80
2017-03-20T03:34:09.481Z,92.20
2017-03-20T03:35:09.487Z,92.70
2017-03-20T03:36:09.483Z,92.70
2017-03-20T03:37:09.493Z,92.90
2017-03-20T03:38:09.507Z,92.90
2017-03-20T03:39:09.480Z,92.90
2017-03-20T03:40:09.447Z,92.90
2017-03-20T03:41:10.212Z,92.70
2017-03-20T03:42:10.197Z,92.70
2017-03-20T03:43:10.206Z,92.60
2017-03-20T03:44:10.174Z,92.60
2017-03-20T03:45:10.189Z,92.40
2017-03-20T03:46:10.226Z,92.50
2017-03-20T03:47:10.253Z,92.50
2017-03-20T03:48:10.231Z,92.70
2017-03-20T03:49:10.220Z,92.60
2017-03-20T03:50:10.217Z,92.70
2017-03-20T03:51:10.213Z,92.50
2017-03-20T03:52:10.968Z,92.60
2017-03-20T03:53:11.721Z,92.70
2017-03-20T03:54:11.726Z,92.90
2017-03-20T03:55:11.698Z,93.10
2017-03-20T03:56:11.685Z,93.40
2017-03-20T03:57:11.687Z,93.10
2017-03-20T03:58:11.669Z,93.20
2017-03-20T03:59:11.688Z,93.30
2017-03-20T04:00:11.684Z,93.20
2017-03-20T04:01:11.668Z,93.20
2017-03-20T04:02:11.667Z,93.10
2017-03-20T04:03:11.686Z,93.20
2017-03-20T04:04:11.706Z,93.20
2017-03-20T04:05:11.691Z,93.30
2017-03-20T04:06:11.622Z,93.10
2017-03-20T04:07:11.586Z,93.10
2017-03-20T04:08:11.552Z,93.50
2017-03-20T04:09:11.484Z,93.10
2017-03-20T04:10:11.433Z,93.10
2017-03-20T04:11:11.388Z,92.90
2017-03-20T04:12:12.081Z,92.90
2017-03-20T04:13:12.031Z,92.90
2017-03-20T04:14:11.994Z,93.00
2017-03-20T04:15:12.085Z,93.00
2017-03-20T04:16:13.752Z,93.10
2017-03-20T04:17:13.694Z,93.10
2017-03-20T04:18:13.921Z,93.40
2017-03-20T04:19:13.880Z,92.90
2017-03-20T04:20:13.859Z,93.00
2017-03-20T04:21:14.555Z,93.10
2017-03-20T04:22:14.514Z,93.10
2017-03-20T04:23:15.322Z,93.20
2017-03-20T04:24:15.254Z,93.20
2017-03-20T04:25:15.965Z,93.10
2017-03-20T04:26:21.754Z,93.10
2017-03-20T04:27:37.250Z,93.20
2017-03-20T04:28:45.246Z,93.20
2017-03-20T04:29:45.188Z,93.20
2017-03-20T04:30:45.904Z,93.20
2017-03-20T04:31:45.821Z,93.10
2017-03-20T04:32:45.813Z,93.10
2017-03-20T04:33:45.813Z,93.10
2017-03-20T04:34:45.770Z,93.20
2017-03-20T04:35:45.742Z,93.10
2017-03-20T04:36:45.713Z,92.90
2017-03-20T04:37:45.650Z,93.00
2017-03-20T04:38:46.374Z,93.10
2017-03-20T04:39:46.315Z,93.00
2017-03-20T04:40:46.247Z,93.10
2017-03-20T04:41:46.226Z,93.00
2017-03-20T04:42:46.199Z,93.00
2017-03-20T04:43:46.174Z,93.10
2017-03-20T04:44:46.146Z,93.00
2017-03-20T04:45:46.123Z,93.00
2017-03-20T04:46:46.602Z,93.00
2017-03-20T04:47:46.546Z,93.00
2017-03-20T04:48:47.329Z,93.00
2017-03-20T04:49:47.389Z,93.00
2017-03-20T04:50:47.377Z,92.90
2017-03-20T04:51:47.371Z,93.10
2017-03-20T04:52:47.443Z,92.90
2017-03-20T04:53:47.399Z,93.00
2017-03-20T04:54:47.378Z,93.00
2017-03-20T04:55:47.338Z,93.00
2017-03-20T04:56:47.312Z,92.90
2017-03-20T04:57:47.238Z,93.00
2017-03-20T04:58:50.118Z,93.00
2017-03-20T04:59:50.098Z,93.10
2017-03-20T05:00:50.074Z,93.00
2017-03-20T05:01:50.034Z,92.90
2017-03-20T05:02:50.040Z,93.00
2017-03-20T05:03:50.014Z,93.10
2017-03-20T05:04:50.019Z,93.10
2017-03-20T05:05:50.126Z,93.00
2017-03-20T05:06:50.121Z,93.00
2017-03-20T05:07:50.088Z,93.00
2017-03-20T05:08:50.044Z,93.10
2017-03-20T05:09:50.028Z,93.10
2017-03-20T05:10:49.971Z,93.20
2017-03-20T05:11:49.932Z,93.10
2017-03-20T05:12:49.927Z,93.20
2017-03-20T05:13:49.935Z,93.40
2017-03-20T05:14:49.935Z,93.60
2017-03-20T05:15:49.965Z,93.40
2017-03-20T05:16:49.954Z,93.50
2017-03-20T05:17:49.940Z,93.60
2017-03-20T05:18:49.917Z,93.70
2017-03-20T05:19:49.986Z,93.70
2017-03-20T05:20:50.030Z,93.80
2017-03-20T05:21:49.999Z,93.70
2017-03-20T05:22:50.022Z,93.70
2017-03-20T05:23:50.022Z,93.70
2017-03-20T05:24:50.049Z,93.60
2017-03-20T05:25:50.026Z,93.70
2017-03-20T05:26:50.019Z,93.40
2017-03-20T05:27:49.990Z,93.50
2017-03-20T05:28:50.768Z,93.50
2017-03-20T05:29:50.851Z,93.50
2017-03-20T05:30:50.858Z,93.50
2017-03-20T05:31:50.905Z,93.50
2017-03-20T05:32:50.844Z,93.50
2017-03-20T05:33:50.831Z,93.50
2017-03-20T05:34:50.816Z,93.50
2017-03-20T05:35:51.152Z,93.20
2017-03-20T05:36:51.870Z,93.70
2017-03-20T05:37:52.214Z,93.30
2017-03-20T05:38:52.209Z,93.30
2017-03-20T05:39:52.287Z,93.20
2017-03-20T05:40:52.283Z,93.20
2017-03-20T05:41:52.358Z,93.20
2017-03-20T05:42:52.441Z,93.20
2017-03-20T05:43:52.450Z,93.40
2017-03-20T05:44:53.491Z,93.20
2017-03-20T05:45:53.574Z,93.10
2017-03-20T05:46:54.152Z,93.30
2017-03-20T05:47:54.342Z,93.00
2017-03-20T05:48:54.335Z,93.20
2017-03-20T05:49:54.356Z,92.90
2017-03-20T05:50:54.406Z,92.90
2017-03-20T05:51:54.379Z,93.00
2017-03-20T05:52:54.353Z,93.00
2017-03-20T05:53:54.426Z,93.00
2017-03-20T05:54:54.518Z,92.80
2017-03-20T05:55:54.690Z,92.70
2017-03-20T05:56:54.742Z,92.70
2017-03-20T05:57:54.759Z,92.70
2017-03-20T05:58:54.769Z,92.80
2017-03-20T05:59:54.836Z,92.90
2017-03-20T06:00:54.875Z,93.00
2017-03-20T06:01:54.967Z,92.90
2017-03-20T06:02:54.986Z,92.80
2017-03-20T06:03:55.023Z,92.80
2017-03-20T06:04:55.823Z,92.80
2017-03-20T06:05:55.861Z,92.80
2017-03-20T06:06:55.855Z,92.70
2017-03-20T06:07:55.852Z,92.80
2017-03-20T06:08:55.843Z,92.80
2017-03-20T06:09:55.922Z,92.80
2017-03-20T06:10:55.993Z,92.70
2017-03-20T06:11:56.037Z,92.50
2017-03-20T06:12:56.008Z,92.50
2017-03-20T06:13:55.988Z,92.40
2017-03-20T06:14:55.970Z,92.40
2017-03-20T06:15:56.014Z,92.40
2017-03-20T06:16:56.012Z,92.50
2017-03-20T06:17:55.995Z,92.50
2017-03-20T06:18:55.975Z,92.50
2017-03-20T06:19:56.061Z,92.50
2017-03-20T06:20:56.080Z,92.60
2017-03-20T06:21:56.081Z,92.40
2017-03-20T06:22:56.085Z,92.40
2017-03-20T06:23:56.368Z,92.40
2017-03-20T06:24:56.451Z,92.40
2017-03-20T06:25:56.510Z,92.40
2017-03-20T06:26:56.537Z,92.20
2017-03-20T06:27:56.586Z,92.50
2017-03-20T06:28:56.668Z,92.20
2017-03-20T06:29:56.720Z,92.10
2017-03-20T06:30:56.710Z,92.10
2017-03-20T06:31:56.747Z,92.20
2017-03-20T06:32:56.866Z,92.10
2017-03-20T06:33:57.725Z,92.00
2017-03-20T06:34:57.691Z,92.10
2017-03-20T06:35:57.638Z,92.00
2017-03-20T06:36:57.659Z,91.50
2017-03-20T06:37:57.682Z,91.50
2017-03-20T06:38:57.688Z,91.90
2017-03-20T06:39:57.691Z,91.40
2017-03-20T06:40:57.760Z,91.40
2017-03-20T06:41:57.827Z,91.50
2017-03-20T06:42:57.863Z,91.30
2017-03-20T06:43:57.866Z,91.40
2017-03-20T06:44:57.877Z,91.50
2017-03-20T06:45:58.761Z,91.90
2017-03-20T06:46:58.795Z,91.40
2017-03-20T06:47:58.921Z,91.50
2017-03-20T06:48:59.063Z,91.90
2017-03-20T06:49:59.115Z,91.90
2017-03-20T06:50:59.152Z,91.90
2017-03-20T06:51:59.143Z,91.90
2017-03-20T06:52:59.184Z,91.90
2017-03-20T06:53:59.226Z,91.90
2017-03-20T06:54:59.211Z,92.50
2017-03-20T06:55:59.233Z,92.40
2017-03-20T06:56:59.250Z,92.40
2017-03-20T06:57:59.242Z,92.00
2017-03-20T06:58:59.298Z,92.30
2017-03-20T06:59:59.291Z,92.10
2017-03-20T07:01:00.068Z,92.10
2017-03-20T07:02:00.109Z,92.50
2017-03-20T07:03:00.198Z,92.10
2017-03-20T07:04:00.215Z,92.10
2017-03-20T07:05:00.246Z,92.20
2017-03-20T07:06:00.257Z,92.10
2017-03-20T07:07:00.285Z,92.10
2017-03-20T07:08:00.752Z,92.20
2017-03-20T07:09:00.767Z,92.90
2017-03-20T07:10:00.826Z,92.90
2017-03-20T07:11:00.789Z,93.20
2017-03-20T07:12:01.518Z,93.60
2017-03-20T07:13:01.531Z,92.80
2017-03-20T07:14:01.630Z,92.80
2017-03-20T07:15:01.619Z,92.80
2017-03-20T07:16:01.598Z,93.30
2017-03-20T07:17:01.571Z,93.40
2017-03-20T07:18:01.600Z,93.50
2017-03-20T07:19:01.692Z,93.50
2017-03-20T07:20:02.510Z,93.60
2017-03-20T07:21:02.538Z,93.60
2017-03-20T07:22:02.590Z,93.20
2017-03-20T07:23:02.756Z,93.10
2017-03-20T07:24:02.778Z,92.90
2017-03-20T07:25:03.682Z,93.20
2017-03-20T07:26:03.698Z,92.90
2017-03-20T07:27:09.280Z,92.80
2017-03-20T07:28:12.087Z,92.90
2017-03-20T07:29:12.132Z,93.30
2017-03-20T07:30:12.283Z,92.80
2017-03-20T07:31:12.314Z,92.80
2017-03-20T07:32:12.344Z,92.90
2017-03-20T07:33:12.463Z,93.10
2017-03-20T07:34:12.464Z,93.00
2017-03-20T07:35:12.552Z,92.90
2017-03-20T07:36:12.582Z,92.90
2017-03-20T07:37:12.638Z,92.90
2017-03-20T07:38:12.812Z,92.90
2017-03-20T07:39:12.850Z,92.90
2017-03-20T07:40:12.845Z,92.90
2017-03-20T07:41:12.869Z,92.80
2017-03-20T07:42:12.942Z,92.90
2017-03-20T07:43:13.321Z,93.00
2017-03-20T07:44:13.427Z,93.10
2017-03-20T07:45:13.597Z,93.20
2017-03-20T07:46:14.213Z,93.30
2017-03-20T07:47:14.223Z,93.20
2017-03-20T07:48:14.234Z,93.20
2017-03-20T07:49:14.254Z,93.00
2017-03-20T07:50:14.243Z,93.10
2017-03-20T07:51:14.322Z,93.10
2017-03-20T07:52:14.416Z,93.10
2017-03-20T07:53:14.461Z,93.00
2017-03-20T07:54:14.487Z,92.90
2017-03-20T07:55:14.503Z,93.00
2017-03-20T07:56:14.565Z,93.00
2017-03-20T07:57:14.646Z,93.00
2017-03-20T07:58:15.014Z,93.00
2017-03-20T07:59:15.038Z,93.00
2017-03-20T08:00:15.026Z,92.70
2017-03-20T08:01:15.077Z,92.50
2017-03-20T08:02:17.615Z,92.60
2017-03-20T08:03:17.741Z,92.60
2017-03-20T08:04:17.755Z,92.50
2017-03-20T08:05:17.781Z,92.60
2017-03-20T08:06:17.814Z,92.60
2017-03-20T08:07:17.881Z,92.50
2017-03-20T08:08:17.964Z,92.90
2017-03-20T08:09:18.062Z,92.40
2017-03-20T08:10:18.109Z,92.70
2017-03-20T08:11:18.155Z,93.30
2017-03-20T08:12:18.167Z,92.60
2017-03-20T08:13:18.281Z,92.60
2017-03-20T08:14:18.410Z,92.80
2017-03-20T08:15:18.485Z,92.70
2017-03-20T08:16:18.573Z,92.30
2017-03-20T08:17:18.683Z,92.30
2017-03-20T08:18:18.766Z,92.50
2017-03-20T08:19:19.002Z,92.40
2017-03-20T08:20:20.348Z,92.30
2017-03-20T08:21:20.373Z,92.10
2017-03-20T08:22:20.406Z,92.30
2017-03-20T08:23:20.415Z,92.30
2017-03-20T08:24:20.442Z,92.00
2017-03-20T08:25:26.857Z,92.40
2017-03-20T08:26:29.761Z,92.10
2017-03-20T08:27:29.823Z,92.00
2017-03-20T08:28:29.818Z,92.10
2017-03-20T08:29:29.889Z,91.90
2017-03-20T08:30:38.742Z,91.90
2017-03-20T08:31:50.160Z,91.80
2017-03-20T08:34:05.379Z,91.80
2017-03-20T08:36:16.711Z,91.50
2017-03-20T08:37:16.727Z,91.60
2017-03-20T08:38:16.787Z,91.80
2017-03-20T08:39:16.869Z,91.80
2017-03-20T08:40:16.897Z,91.80
2017-03-20T08:41:16.892Z,91.60
2017-03-20T08:42:16.927Z,91.70
2017-03-20T08:43:16.913Z,91.70
2017-03-20T08:44:17.838Z,91.60
2017-03-20T08:45:17.807Z,91.70
2017-03-20T08:46:18.686Z,91.60
2017-03-20T08:47:18.663Z,91.50
2017-03-20T08:48:18.583Z,91.30
2017-03-20T08:49:18.677Z,91.30
2017-03-20T08:50:19.474Z,91.20
2017-03-20T08:51:19.507Z,91.20
2017-03-20T08:52:19.812Z,91.20
2017-03-20T08:53:19.767Z,90.90
2017-03-20T08:54:20.330Z,91.00
2017-03-20T08:55:21.018Z,91.40
2017-03-20T08:56:20.970Z,90.90
2017-03-20T08:57:20.926Z,90.90
2017-03-20T08:58:20.907Z,90.90
2017-03-20T08:59:20.867Z,90.90
2017-03-20T09:00:20.996Z,91.10
2017-03-20T09:01:21.173Z,90.80
2017-03-20T09:02:21.117Z,90.80
2017-03-20T09:03:21.835Z,90.90
2017-03-20T09:04:22.538Z,90.90
2017-03-20T09:05:22.518Z,90.70
2017-03-20T09:06:22.513Z,91.20
2017-03-20T09:07:22.507Z,90.70
2017-03-20T09:08:22.464Z,90.60
2017-03-20T09:09:22.464Z,90.60
2017-03-20T09:10:22.481Z,90.70
2017-03-20T09:11:22.461Z,90.60
2017-03-20T09:12:22.444Z,90.50
2017-03-20T09:13:22.380Z,90.40
2017-03-20T09:14:22.319Z,90.50
2017-03-20T09:15:22.284Z,90.50
2017-03-20T09:16:22.353Z,90.50
2017-03-20T09:17:22.340Z,90.60
2017-03-20T09:18:22.274Z,90.30
2017-03-20T09:19:22.282Z,90.30
2017-03-20T09:20:22.294Z,90.30
2017-03-20T09:21:22.263Z,90.40
2017-03-20T09:22:22.958Z,90.50
2017-03-20T09:23:22.949Z,90.80
2017-03-20T09:24:22.903Z,90.60
2017-03-20T09:25:22.926Z,90.60
2017-03-20T09:26:23.018Z,90.90
2017-03-20T09:27:22.978Z,90.90
2017-03-20T09:28:23.021Z,90.90
2017-03-20T09:29:23.722Z,91.10
2017-03-20T09:30:23.696Z,91.30
2017-03-20T09:31:23.801Z,91.50
2017-03-20T09:32:23.741Z,91.60
2017-03-20T09:33:23.704Z,92.00
2017-03-20T09:34:23.695Z,92.10
2017-03-20T09:35:23.657Z,92.30
2017-03-20T09:36:23.585Z,92.60
2017-03-20T09:37:24.285Z,92.90
2017-03-20T09:38:24.279Z,92.90
2017-03-20T09:39:24.294Z,93.00
2017-03-20T09:40:24.220Z,93.10
2017-03-20T09:41:24.918Z,93.00
2017-03-20T09:42:24.906Z,93.20
2017-03-20T09:43:24.874Z,93.30
2017-03-20T09:44:24.889Z,93.20
2017-03-20T09:45:24.811Z,93.60
2017-03-20T09:46:24.764Z,93.20
2017-03-20T09:47:24.742Z,93.10
2017-03-20T09:48:24.711Z,93.20
2017-03-20T09:49:24.686Z,93.20
2017-03-20T09:50:24.697Z,92.80
2017-03-20T09:51:25.406Z,93.00
2017-03-20T09:52:26.224Z,93.10
2017-03-20T09:53:26.239Z,93.00
2017-03-20T09:54:26.242Z,93.10
2017-03-20T09:55:26.247Z,92.70
2017-03-20T09:56:26.188Z,92.60
2017-03-20T09:57:26.176Z,92.50
2017-03-20T09:58:26.162Z,92.50
2017-03-20T09:59:26.202Z,92.30
2017-03-20T10:00:26.931Z,92.10
2017-03-20T10:01:26.974Z,91.70
2017-03-20T10:02:26.924Z,91.70
2017-03-20T10:03:26.937Z,91.90
2017-03-20T10:04:26.946Z,92.00
2017-03-20T10:05:26.986Z,91.50
2017-03-20T10:06:26.978Z,90.90
2017-03-20T10:07:26.959Z,90.80
2017-03-20T10:08:26.935Z,90.60
2017-03-20T10:09:26.902Z,90.70
2017-03-20T10:10:26.899Z,90.60
2017-03-20T10:11:27.007Z,90.60
2017-03-20T10:12:27.048Z,89.90
2017-03-20T10:13:27.079Z,89.30
2017-03-20T10:14:27.015Z,88.50
2017-03-20T10:15:27.757Z,88.40
2017-03-20T10:16:27.706Z,88.70
2017-03-20T10:17:27.645Z,89.10
2017-03-20T10:18:28.446Z,89.20
2017-03-20T10:19:28.548Z,88.60
2017-03-20T10:20:28.578Z,87.90
2017-03-20T10:21:28.545Z,87.60
2017-03-20T10:22:28.569Z,86.90
2017-03-20T10:23:28.647Z,86.20
2017-03-20T10:24:28.580Z,85.00
2017-03-20T10:25:30.458Z,84.10
2017-03-20T10:26:30.442Z,84.50
2017-03-20T10:27:30.406Z,84.70
2017-03-20T10:28:30.366Z,84.90
2017-03-20T10:29:30.349Z,85.20
2017-03-20T10:30:30.385Z,85.20
2017-03-20T10:31:30.352Z,84.80
2017-03-20T10:32:30.299Z,84.50
2017-03-20T10:33:30.327Z,85.00
2017-03-20T10:34:31.010Z,85.00
2017-03-20T10:35:31.021Z,85.00
2017-03-20T10:36:31.029Z,84.70
2017-03-20T10:37:30.989Z,84.60
2017-03-20T10:38:30.992Z,83.90
2017-03-20T10:39:30.975Z,83.80
2017-03-20T10:40:31.029Z,84.10
2017-03-20T10:41:31.083Z,83.70
2017-03-20T10:42:31.054Z,83.80
2017-03-20T10:43:31.066Z,83.30
2017-03-20T10:44:31.061Z,83.10
2017-03-20T10:45:31.116Z,83.00
2017-03-20T10:46:31.803Z,83.10
2017-03-20T10:47:31.815Z,82.70
2017-03-20T10:48:31.821Z,82.40
2017-03-20T10:49:31.790Z,81.30
2017-03-20T10:50:31.754Z,79.90
2017-03-20T10:51:32.505Z,79.30
2017-03-20T10:52:32.442Z,78.40
2017-03-20T10:53:32.436Z,76.90
2017-03-20T10:54:32.350Z,77.00
2017-03-20T10:55:32.327Z,76.70
2017-03-20T10:56:32.321Z,75.60
2017-03-20T10:57:32.265Z,73.90
2017-03-20T10:58:32.335Z,72.30
2017-03-20T10:59:33.003Z,71.50
2017-03-20T11:00:33.019Z,69.20
2017-03-20T11:01:33.030Z,67.70
2017-03-20T11:02:34.809Z,65.40
2017-03-20T11:03:34.739Z,63.60
2017-03-20T11:04:34.726Z,63.80
2017-03-20T11:05:34.684Z,65.30
2017-03-20T11:06:34.709Z,65.70
2017-03-20T11:07:35.734Z,67.10
2017-03-20T11:08:35.783Z,67.40
2017-03-20T11:09:35.759Z,68.00
2017-03-20T11:10:35.753Z,67.30
2017-03-20T11:11:35.718Z,66.40
2017-03-20T11:12:35.742Z,65.70
2017-03-20T11:13:35.683Z,65.20
2017-03-20T11:14:35.721Z,64.10
2017-03-20T11:15:35.654Z,63.70
2017-03-20T11:16:35.671Z,64.60
2017-03-20T11:17:35.636Z,64.00
2017-03-20T11:18:35.579Z,63.80
2017-03-20T11:19:35.523Z,63.90
2017-03-20T11:20:35.500Z,64.00
2017-03-20T11:21:35.493Z,64.50
2017-03-20T11:22:35.480Z,65.60
2017-03-20T11:23:35.476Z,66.20
2017-03-20T11:24:36.174Z,66.00
2017-03-20T11:25:36.149Z,65.60
2017-03-20T11:26:36.143Z,65.20
2017-03-20T11:27:37.210Z,65.70
2017-03-20T11:28:37.910Z,66.10
2017-03-20T11:29:37.903Z,65.20
2017-03-20T11:30:37.919Z,65.30
2017-03-20T11:31:37.928Z,65.00
2017-03-20T11:32:37.883Z,64.00
2017-03-20T11:33:37.849Z,63.60
2017-03-20T11:34:37.849Z,63.00
2017-03-20T11:35:37.845Z,62.80
2017-03-20T11:36:37.892Z,62.10
2017-03-20T11:37:37.857Z,61.50
2017-03-20T11:38:38.118Z,61.90
2017-03-20T11:39:38.138Z,62.40
2017-03-20T11:40:38.115Z,62.60
2017-03-20T11:41:38.105Z,62.60
2017-03-20T11:42:38.117Z,61.90
2017-03-20T11:43:38.107Z,61.20
2017-03-20T11:44:38.106Z,60.60
2017-03-20T11:45:38.150Z,60.20
2017-03-20T11:46:39.338Z,60.10
2017-03-20T11:47:39.319Z,59.90
2017-03-20T11:48:39.326Z,60.00
2017-03-20T11:49:39.290Z,59.40
2017-03-20T11:50:39.298Z,58.10
2017-03-20T11:51:39.327Z,57.20
2017-03-20T11:52:39.315Z,57.10
2017-03-20T11:53:40.135Z,57.00
2017-03-20T11:54:40.083Z,57.70
2017-03-20T11:55:40.091Z,58.50
2017-03-20T11:56:40.074Z,59.00
2017-03-20T11:57:40.047Z,59.00
2017-03-20T11:58:39.992Z,59.20
2017-03-20T11:59:39.946Z,58.40
2017-03-20T12:00:39.934Z,58.50
2017-03-20T12:01:40.014Z,58.40
2017-03-20T12:02:40.014Z,58.70
2017-03-20T12:03:39.988Z,58.40
2017-03-20T12:04:39.962Z,58.90
2017-03-20T12:05:39.935Z,59.20
2017-03-20T12:06:40.618Z,59.10
2017-03-20T12:07:40.612Z,57.90
2017-03-20T12:08:40.655Z,58.70
2017-03-20T12:09:40.584Z,58.40
2017-03-20T12:10:40.591Z,58.50
2017-03-20T12:11:40.578Z,60.10
2017-03-20T12:12:40.562Z,60.00
2017-03-20T12:13:40.491Z,59.90
2017-03-20T12:14:40.426Z,59.50
2017-03-20T12:15:40.398Z,59.40
2017-03-20T12:16:40.414Z,59.10
2017-03-20T12:17:40.382Z,59.10
2017-03-20T12:18:40.328Z,59.00
2017-03-20T12:19:41.072Z,59.20
2017-03-20T12:20:41.026Z,59.30
2017-03-20T12:21:41.060Z,59.30
2017-03-20T12:22:41.115Z,59.20
2017-03-20T12:23:41.082Z,58.80
2017-03-20T12:24:56.136Z,58.80
2017-03-20T12:26:23.729Z,59.00
2017-03-20T12:27:55.149Z,59.30
2017-03-20T12:28:55.075Z,59.70
2017-03-20T12:29:55.122Z,59.90
2017-03-20T12:30:55.110Z,60.00
2017-03-20T12:31:55.043Z,59.90
2017-03-20T12:32:55.032Z,59.60
2017-03-20T12:33:55.001Z,59.80
2017-03-20T12:34:54.993Z,60.00
2017-03-20T12:35:55.059Z,60.10
2017-03-20T12:36:55.031Z,60.30
2017-03-20T12:37:55.238Z,59.80
2017-03-20T12:38:55.209Z,59.70
2017-03-20T12:39:56.013Z,59.60
2017-03-20T12:40:56.061Z,59.90
2017-03-20T12:41:56.010Z,60.00
2017-03-20T12:42:56.028Z,60.00
2017-03-20T12:43:55.991Z,59.80
2017-03-20T12:44:55.942Z,59.50
2017-03-20T12:45:55.873Z,58.80
2017-03-20T12:46:55.801Z,59.00
2017-03-20T12:47:55.802Z,58.30
2017-03-20T12:48:55.767Z,58.90
2017-03-20T12:49:55.732Z,58.00
2017-03-20T12:50:55.673Z,58.00
2017-03-20T12:51:55.600Z,58.30
2017-03-20T12:52:55.511Z,58.30
2017-03-20T12:53:56.174Z,57.90
2017-03-20T12:54:58.632Z,57.70
2017-03-20T12:55:59.519Z,57.70
2017-03-20T12:56:59.486Z,57.50
2017-03-20T12:57:59.457Z,57.90
2017-03-20T12:58:59.397Z,58.10
2017-03-20T12:59:59.383Z,58.50